createdAt,value
2022-10-20T00:00:35.018Z,89.65
2022-10-20T00:03:02.972Z,90.36
2022-10-20T00:05:31.000Z,90.53
2022-10-20T00:07:58.835Z,90.47
2022-10-20T00:10:26.736Z,89.80
2022-10-20T00:12:54.746Z,89.87
2022-10-20T00:15:22.707Z,90.01
2022-10-20T00:17:52.200Z,90.67
2022-10-20T00:20:20.103Z,89.99
2022-10-20T00:22:48.148Z,90.09
2022-10-20T00:25:16.320Z,90.24
2022-10-20T00:27:44.202Z,89.97
2022-10-20T00:30:12.451Z,89.93
2022-10-20T00:32:40.295Z,89.80
2022-10-20T00:35:10.189Z,90.25
2022-10-20T00:37:38.046Z,90.29
2022-10-20T00:40:06.357Z,89.74
2022-10-20T00:42:34.682Z,90.14
2022-10-20T00:45:03.293Z,90.34
2022-10-20T00:47:37.009Z,89.83
2022-10-20T00:50:08.555Z,90.36
2022-10-20T00:52:38.498Z,90.17
2022-10-20T00:55:07.727Z,90.00
2022-10-20T00:57:36.281Z,89.86
2022-10-20T01:00:05.437Z,90.14
2022-10-20T01:02:33.497Z,90.42
2022-10-20T01:05:01.673Z,89.87
2022-10-20T01:07:29.599Z,90.11
2022-10-20T01:09:58.821Z,90.00
2022-10-20T01:12:29.402Z,89.93
2022-10-20T01:15:01.654Z,89.89
2022-10-20T01:17:36.323Z,90.22
2022-10-20T01:20:23.350Z,90.41
2022-10-20T01:23:03.617Z,90.32
2022-10-20T01:25:40.869Z,90.22
2022-10-20T01:28:14.819Z,89.85
2022-10-20T01:30:45.943Z,90.23
2022-10-20T01:33:19.491Z,90.16
2022-10-20T01:35:53.739Z,90.56
2022-10-20T01:38:24.523Z,90.59
2022-10-20T01:40:55.594Z,90.01
2022-10-20T01:43:26.568Z,90.61
2022-10-20T01:45:55.465Z,90.36
2022-10-20T01:48:26.269Z,89.97
2022-10-20T01:50:54.237Z,90.07
2022-10-20T01:53:22.285Z,90.65
2022-10-20T01:55:51.761Z,89.83
2022-10-20T01:58:35.270Z,89.98
2022-10-20T02:01:08.362Z,90.70
2022-10-20T02:03:42.440Z,90.28
2022-10-20T02:06:17.655Z,90.80
2022-10-20T02:08:47.490Z,90.81
2022-10-20T02:11:20.881Z,90.78
2022-10-20T02:13:50.953Z,91.09
2022-10-20T02:16:21.438Z,90.42
2022-10-20T02:18:49.721Z,90.98
2022-10-20T02:21:17.856Z,90.29
2022-10-20T02:23:48.024Z,91.08
2022-10-20T02:26:17.200Z,90.53
2022-10-20T02:28:48.004Z,90.27
2022-10-20T02:31:17.809Z,90.43
2022-10-20T02:33:46.651Z,90.97
2022-10-20T02:36:17.626Z,91.12
2022-10-20T02:38:45.771Z,90.81
2022-10-20T02:41:13.939Z,90.69
2022-10-20T02:43:42.141Z,90.91
2022-10-20T02:46:10.283Z,90.52
2022-10-20T02:48:39.576Z,91.01
2022-10-20T02:51:07.719Z,89.92
2022-10-20T02:53:35.706Z,90.03
2022-10-20T02:56:03.868Z,90.02
2022-10-20T02:58:31.738Z,90.02
2022-10-20T03:00:59.656Z,90.14
2022-10-20T03:03:27.595Z,90.52
2022-10-20T03:05:56.899Z,90.87
2022-10-20T03:08:25.059Z,90.14
2022-10-20T03:10:52.948Z,90.67
2022-10-20T03:13:20.863Z,90.70
2022-10-20T03:15:49.680Z,89.80
2022-10-20T03:18:17.564Z,90.27
2022-10-20T03:20:45.622Z,90.47
2022-10-20T03:23:17.754Z,89.91
2022-10-20T03:25:48.372Z,90.45
2022-10-20T03:28:16.259Z,90.34
2022-10-20T03:30:46.385Z,90.20
2022-10-20T03:33:14.318Z,91.08
2022-10-20T03:35:42.128Z,90.92
2022-10-20T03:38:09.933Z,91.10
2022-10-20T03:40:39.103Z,90.75
2022-10-20T03:43:07.070Z,91.08
2022-10-20T03:45:34.896Z,91.03
2022-10-20T03:48:02.701Z,90.43
2022-10-20T03:50:30.585Z,90.36
2022-10-20T03:52:58.866Z,91.00
2022-10-20T03:55:26.938Z,90.67
2022-10-20T03:57:56.234Z,90.75
2022-10-20T04:00:24.120Z,90.82
2022-10-20T04:02:53.087Z,91.13
2022-10-20T04:05:21.634Z,90.52
2022-10-20T04:07:49.889Z,91.16
2022-10-20T04:10:18.147Z,91.34
2022-10-20T04:12:46.085Z,90.59
2022-10-20T04:15:15.250Z,91.02
2022-10-20T04:17:43.194Z,91.30
2022-10-20T04:20:11.467Z,91.24
2022-10-20T04:22:40.431Z,90.66
2022-10-20T04:25:08.712Z,90.32
2022-10-20T04:27:36.844Z,90.89
2022-10-20T04:30:05.256Z,90.80
2022-10-20T04:32:34.592Z,90.49
2022-10-20T04:35:02.422Z,90.92
2022-10-20T04:37:30.324Z,90.22
2022-10-20T04:39:58.556Z,90.75
2022-10-20T04:42:26.489Z,90.43
2022-10-20T04:44:54.518Z,90.56
2022-10-20T04:47:22.563Z,90.51
2022-10-20T04:49:51.807Z,90.67
2022-10-20T04:52:20.883Z,90.54
2022-10-20T04:54:48.832Z,89.67
2022-10-20T04:57:16.911Z,89.81
2022-10-20T04:59:44.745Z,89.25
2022-10-20T05:02:12.638Z,89.67
2022-10-20T05:04:40.667Z,89.22
2022-10-20T05:07:10.029Z,89.46
2022-10-20T05:09:38.129Z,89.65
2022-10-20T05:12:06.295Z,89.64
2022-10-20T05:14:34.273Z,89.38
2022-10-20T05:17:04.228Z,89.76
2022-10-20T05:19:34.719Z,89.72
2022-10-20T05:22:03.015Z,88.55
2022-10-20T05:24:32.479Z,88.50
2022-10-20T05:27:00.394Z,88.00
2022-10-20T05:29:28.400Z,88.62
2022-10-20T05:31:56.334Z,87.76
2022-10-20T05:34:24.482Z,87.89
2022-10-20T05:36:53.496Z,88.63
2022-10-20T05:39:21.544Z,88.76
2022-10-20T05:41:51.155Z,88.62
2022-10-20T05:44:21.426Z,88.21
2022-10-20T05:46:52.152Z,87.71
2022-10-20T05:49:20.209Z,87.39
2022-10-20T05:51:50.107Z,88.48
2022-10-20T05:54:18.189Z,88.15
2022-10-20T05:56:46.058Z,88.30
2022-10-20T05:59:15.308Z,87.48
2022-10-20T06:01:49.033Z,87.78
2022-10-20T06:04:17.895Z,87.81
2022-10-20T06:06:48.820Z,88.38
2022-10-20T06:09:17.144Z,88.22
2022-10-20T06:11:47.220Z,88.03
2022-10-20T06:14:17.275Z,87.76
2022-10-20T06:16:46.127Z,87.50
2022-10-20T06:19:14.327Z,87.55
2022-10-20T06:21:44.698Z,87.90
2022-10-20T06:24:12.838Z,87.48
2022-10-20T06:26:41.057Z,88.11
2022-10-20T06:29:11.038Z,87.84
2022-10-20T06:31:41.339Z,87.17
2022-10-20T06:34:12.590Z,86.67
2022-10-20T06:36:43.027Z,86.41
2022-10-20T06:39:18.631Z,86.18
2022-10-20T06:41:48.565Z,86.51
2022-10-20T06:44:17.280Z,86.19
2022-10-20T06:46:49.177Z,85.24
2022-10-20T06:49:17.152Z,85.46
2022-10-20T06:51:45.761Z,84.90
2022-10-20T06:54:14.112Z,84.54
2022-10-20T06:56:43.339Z,84.67
2022-10-20T06:59:11.196Z,84.32
2022-10-20T07:01:40.187Z,84.04
2022-10-20T07:04:11.466Z,83.03
2022-10-20T07:06:40.495Z,82.52
2022-10-20T07:09:11.352Z,82.35
2022-10-20T07:11:39.450Z,81.94
2022-10-20T07:14:07.321Z,81.41
2022-10-20T07:16:36.147Z,81.20
2022-10-20T07:19:04.889Z,80.98
2022-10-20T07:21:38.200Z,81.04
2022-10-20T07:24:09.507Z,80.26
2022-10-20T07:26:38.943Z,80.41
2022-10-20T07:29:06.862Z,79.46
2022-10-20T07:31:36.266Z,79.41
2022-10-20T07:34:07.369Z,79.00
2022-10-20T07:36:43.825Z,78.55
2022-10-20T07:39:14.036Z,77.46
2022-10-20T07:41:44.055Z,77.01
2022-10-20T07:44:12.559Z,75.76
2022-10-20T07:46:40.450Z,75.66
2022-10-20T07:49:39.160Z,75.20
2022-10-20T07:51:58.267Z,73.56
2022-10-20T07:54:26.128Z,73.76
2022-10-20T07:56:53.960Z,73.86
2022-10-20T07:59:21.896Z,72.82
2022-10-20T08:01:49.767Z,72.47
2022-10-20T08:04:17.819Z,69.65
2022-10-20T08:06:47.159Z,67.83
2022-10-20T08:09:18.365Z,66.19
2022-10-20T08:11:46.256Z,64.78
2022-10-20T08:14:14.225Z,63.39
2022-10-20T08:16:53.479Z,61.36
2022-10-20T08:22:12.942Z,56.17
2022-10-20T08:24:42.086Z,55.37
2022-10-20T08:27:09.943Z,52.37
2022-10-20T08:29:38.115Z,54.01
2022-10-20T08:32:06.264Z,53.58
2022-10-20T08:34:34.335Z,54.27
2022-10-20T08:37:02.183Z,53.95
2022-10-20T08:39:30.081Z,58.30
2022-10-20T08:42:14.935Z,59.64
2022-10-20T08:44:45.363Z,60.39
2022-10-20T08:47:17.368Z,60.11
2022-10-20T08:49:45.845Z,59.60
2022-10-20T08:52:15.582Z,58.43
2022-10-20T08:54:43.759Z,61.16
2022-10-20T08:57:21.837Z,61.15
2022-10-20T08:59:51.789Z,60.18
2022-10-20T09:02:19.607Z,60.01
2022-10-20T09:04:49.149Z,58.94
2022-10-20T09:07:22.013Z,57.19
2022-10-20T09:09:50.183Z,53.80
2022-10-20T09:12:19.890Z,51.94
2022-10-20T09:14:47.900Z,49.24
2022-10-20T09:17:17.512Z,47.51
2022-10-20T09:19:47.343Z,44.87
2022-10-20T09:22:15.835Z,43.06
2022-10-20T09:24:44.618Z,40.33
2022-10-20T09:27:24.200Z,36.84
2022-10-20T09:29:52.212Z,35.53
2022-10-20T09:35:18.819Z,36.90
2022-10-20T09:37:53.624Z,39.89
2022-10-20T09:40:21.907Z,44.08
2022-10-20T09:42:54.266Z,48.27
2022-10-20T09:45:24.008Z,52.01
2022-10-20T09:47:53.268Z,55.10
2022-10-20T09:50:24.674Z,58.95
2022-10-20T09:52:53.275Z,61.77
2022-10-20T09:55:24.580Z,61.91
2022-10-20T09:57:54.612Z,62.67
2022-10-20T10:00:36.198Z,62.91
2022-10-20T10:03:22.797Z,63.10
2022-10-20T10:05:52.535Z,63.46
2022-10-20T10:08:21.050Z,63.95
2022-10-20T10:10:59.263Z,64.06
2022-10-20T10:13:30.127Z,62.86
2022-10-20T10:16:02.568Z,63.67
2022-10-20T10:18:31.456Z,62.99
2022-10-20T10:21:00.635Z,63.78
2022-10-20T10:23:29.395Z,64.85
2022-10-20T10:26:00.626Z,65.28
2022-10-20T10:28:34.210Z,66.13
2022-10-20T10:31:10.054Z,67.20
2022-10-20T10:33:38.182Z,67.69
2022-10-20T10:36:08.476Z,68.52
2022-10-20T10:38:37.217Z,68.65
2022-10-20T10:41:10.592Z,68.85
2022-10-20T10:43:47.816Z,68.82
2022-10-20T10:46:19.938Z,68.67
2022-10-20T10:49:00.729Z,68.56
2022-10-20T10:51:33.627Z,68.62
2022-10-20T10:54:11.845Z,68.61
2022-10-20T10:56:44.620Z,68.22
2022-10-20T10:59:16.814Z,67.92
2022-10-20T11:01:53.376Z,66.82
2022-10-20T11:04:36.940Z,66.16
2022-10-20T11:07:08.686Z,65.14
2022-10-20T11:09:42.335Z,64.55
2022-10-20T11:12:19.342Z,64.31
2022-10-20T11:14:56.915Z,64.57
2022-10-20T11:17:33.420Z,64.78
2022-10-20T11:20:10.006Z,64.44
2022-10-20T11:22:39.893Z,64.69
2022-10-20T11:25:13.523Z,65.41
2022-10-20T11:27:42.438Z,65.89
2022-10-20T11:30:18.227Z,66.71
2022-10-20T11:32:56.579Z,67.35
2022-10-20T11:35:29.007Z,67.98
2022-10-20T11:38:03.870Z,68.79
2022-10-20T11:40:33.072Z,68.63
2022-10-20T11:43:08.817Z,68.25
2022-10-20T11:45:43.823Z,68.98
2022-10-20T11:48:16.457Z,69.09
2022-10-20T11:50:50.084Z,69.33
2022-10-20T11:53:28.402Z,69.28
2022-10-20T11:56:07.372Z,69.10
2022-10-20T11:58:42.586Z,69.03
2022-10-20T12:01:24.268Z,69.04
2022-10-20T12:04:25.440Z,69.16
2022-10-20T12:07:01.160Z,69.21
2022-10-20T12:09:42.558Z,69.07
2022-10-20T12:12:13.049Z,69.48
2022-10-20T12:14:43.104Z,70.50
2022-10-20T12:17:28.610Z,71.51
2022-10-20T12:20:11.565Z,72.46
2022-10-20T12:22:43.990Z,73.16
2022-10-20T12:25:38.059Z,75.15
2022-10-20T12:28:21.017Z,76.48
2022-10-20T12:30:54.999Z,77.13
2022-10-20T12:33:35.950Z,79.08
2022-10-20T12:36:14.794Z,80.35
2022-10-20T12:38:45.518Z,81.34
2022-10-20T12:41:24.578Z,82.04
2022-10-20T12:43:54.210Z,83.10
2022-10-20T12:46:27.683Z,84.18
2022-10-20T12:48:59.893Z,84.71
2022-10-20T12:51:36.042Z,85.43
2022-10-20T12:54:09.256Z,86.82
2022-10-20T12:56:41.886Z,86.67
2022-10-20T12:59:21.514Z,87.02
2022-10-20T13:02:08.064Z,87.78
2022-10-20T13:04:55.366Z,88.61
2022-10-20T13:07:38.522Z,89.13
2022-10-20T13:13:24.010Z,90.06
2022-10-20T13:15:53.591Z,91.63
2022-10-20T13:18:26.934Z,91.07
2022-10-20T13:20:57.158Z,90.15
2022-10-20T13:23:26.906Z,89.40
2022-10-20T13:25:56.931Z,88.69
2022-10-20T13:28:28.477Z,88.79
2022-10-20T13:31:08.316Z,88.96
2022-10-20T13:34:02.687Z,90.28
2022-10-20T13:36:37.076Z,91.07
2022-10-20T13:39:12.761Z,90.82
2022-10-20T13:41:45.848Z,89.66
2022-10-20T13:44:29.128Z,89.61
2022-10-20T13:47:04.970Z,89.35
2022-10-20T13:49:41.882Z,88.92
2022-10-20T13:52:14.585Z,88.91
2022-10-20T13:54:45.074Z,88.79
2022-10-20T13:57:25.648Z,88.97
2022-10-20T13:59:59.824Z,88.28
2022-10-20T14:02:29.039Z,86.46
2022-10-20T14:05:04.096Z,85.42
2022-10-20T14:07:39.707Z,82.38
2022-10-20T14:10:09.439Z,81.63
2022-10-20T14:12:37.962Z,81.56
2022-10-20T14:15:20.233Z,81.25
2022-10-20T14:17:55.996Z,82.65
2022-10-20T14:20:24.436Z,81.02
2022-10-20T14:22:54.358Z,80.20
2022-10-20T14:25:28.579Z,80.99
2022-10-20T14:27:57.715Z,81.63
2022-10-20T14:30:27.909Z,81.07
2022-10-20T14:32:58.235Z,80.12
2022-10-20T14:35:30.054Z,78.02
2022-10-20T14:38:03.305Z,76.11
2022-10-20T14:40:32.952Z,74.96
2022-10-20T14:43:03.102Z,72.39
2022-10-20T14:48:02.101Z,71.99
2022-10-20T14:50:34.874Z,72.20
2022-10-20T14:53:30.417Z,71.72
2022-10-20T14:56:00.627Z,71.61
2022-10-20T14:58:30.871Z,72.91
2022-10-20T15:01:16.277Z,73.12
2022-10-20T15:03:44.749Z,73.99
2022-10-20T15:06:16.922Z,74.26
2022-10-20T15:08:58.057Z,75.14
2022-10-20T15:11:28.228Z,75.50
2022-10-20T15:13:59.040Z,75.91
2022-10-20T15:16:43.501Z,76.53
2022-10-20T15:19:13.488Z,77.00
2022-10-20T15:21:42.453Z,77.77
2022-10-20T15:24:10.516Z,77.62
2022-10-20T15:26:38.576Z,77.84
2022-10-20T15:29:07.960Z,77.72
2022-10-20T15:34:12.339Z,77.96
2022-10-20T15:36:42.266Z,77.97
2022-10-20T15:39:12.091Z,78.01
2022-10-20T15:41:43.230Z,78.32
2022-10-20T15:44:16.125Z,78.32
2022-10-20T15:46:45.884Z,78.51
2022-10-20T15:49:17.964Z,79.12
2022-10-20T15:51:47.018Z,79.21
2022-10-20T15:54:18.820Z,78.85
2022-10-20T15:56:47.059Z,78.92
2022-10-20T15:59:15.108Z,79.39
2022-10-20T16:01:43.390Z,79.41
2022-10-20T16:04:18.746Z,79.60
2022-10-20T16:06:47.118Z,79.86
2022-10-20T16:09:21.369Z,80.18
2022-10-20T16:11:50.121Z,79.61
2022-10-20T16:14:22.695Z,79.74
2022-10-20T16:16:51.235Z,79.88
2022-10-20T16:19:20.782Z,79.82
2022-10-20T16:21:48.899Z,79.64
2022-10-20T16:24:16.856Z,80.06
2022-10-20T16:26:44.831Z,80.22
2022-10-20T16:29:20.489Z,80.72
2022-10-20T16:31:49.320Z,80.56
2022-10-20T16:34:17.289Z,80.96
2022-10-20T16:36:52.825Z,81.38
2022-10-20T16:39:21.071Z,81.36
2022-10-20T16:41:49.262Z,81.89
2022-10-20T16:44:17.249Z,81.96
2022-10-20T16:46:53.513Z,82.44
2022-10-20T16:49:21.882Z,82.61
2022-10-20T16:51:51.805Z,82.78
2022-10-20T16:54:20.151Z,83.29
2022-10-20T16:56:52.560Z,83.10
2022-10-20T16:59:20.924Z,83.46
2022-10-20T17:01:48.961Z,83.99
2022-10-20T17:04:17.348Z,84.02
2022-10-20T17:06:45.494Z,84.42
2022-10-20T17:09:15.105Z,84.19
2022-10-20T17:11:45.278Z,83.84
2022-10-20T17:14:13.620Z,84.37
2022-10-20T17:16:42.352Z,84.94
2022-10-20T17:19:11.534Z,84.70
2022-10-20T17:21:39.828Z,85.08
2022-10-20T17:24:13.715Z,85.55
2022-10-20T17:26:43.492Z,85.40
2022-10-20T17:29:12.035Z,85.27
2022-10-20T17:31:40.303Z,85.38
2022-10-20T17:34:08.399Z,85.60
2022-10-20T17:36:36.642Z,85.35
2022-10-20T17:39:15.443Z,85.62
2022-10-20T17:41:44.987Z,85.16
2022-10-20T17:44:20.562Z,85.86
2022-10-20T17:46:49.500Z,86.02
2022-10-20T17:49:23.388Z,86.37
2022-10-20T17:51:51.496Z,86.64
2022-10-20T17:54:20.425Z,86.54
2022-10-20T17:56:52.367Z,85.83
2022-10-20T17:59:20.816Z,86.15
2022-10-20T18:01:49.103Z,86.13
2022-10-20T18:04:18.342Z,86.33
2022-10-20T18:06:46.886Z,86.66
2022-10-20T18:09:16.122Z,86.93
2022-10-20T18:11:45.140Z,86.78
2022-10-20T18:14:15.110Z,86.43
2022-10-20T18:16:46.081Z,86.52
2022-10-20T18:19:14.900Z,87.07
2022-10-20T18:21:43.469Z,87.23
2022-10-20T18:24:12.807Z,87.13
2022-10-20T18:26:40.968Z,87.49
2022-10-20T18:29:10.306Z,86.85
2022-10-20T18:31:41.030Z,87.26
2022-10-20T18:34:18.589Z,86.97
2022-10-20T18:36:47.710Z,87.34
2022-10-20T18:39:17.028Z,87.73
2022-10-20T18:41:46.323Z,88.21
2022-10-20T18:44:16.123Z,88.32
2022-10-20T18:46:46.895Z,88.44
2022-10-20T18:49:16.800Z,88.60
2022-10-20T18:51:46.108Z,87.54
2022-10-20T18:54:14.324Z,87.64
2022-10-20T18:56:42.909Z,87.68
2022-10-20T18:59:14.005Z,88.00
2022-10-20T19:01:42.528Z,88.36
2022-10-20T19:04:14.155Z,88.62
2022-10-20T19:06:43.480Z,88.79
2022-10-20T19:09:14.576Z,88.70
2022-10-20T19:11:42.956Z,88.96
2022-10-20T19:14:11.543Z,89.15
2022-10-20T19:16:40.176Z,89.26
2022-10-20T19:19:09.777Z,88.81
2022-10-20T19:21:40.153Z,88.39
2022-10-20T19:24:09.613Z,88.31
2022-10-20T19:26:39.649Z,88.27
2022-10-20T19:29:09.411Z,88.44
2022-10-20T19:31:40.252Z,88.45
2022-10-20T19:34:09.799Z,87.88
2022-10-20T19:36:40.068Z,87.76
2022-10-20T19:39:10.173Z,87.47
2022-10-20T19:41:38.944Z,87.38
2022-10-20T19:44:08.328Z,87.33
2022-10-20T19:46:42.663Z,87.25
2022-10-20T19:49:10.822Z,86.75
2022-10-20T19:51:40.513Z,86.16
2022-10-20T19:54:09.213Z,85.71
2022-10-20T19:56:37.195Z,85.59
2022-10-20T19:59:06.481Z,85.24
2022-10-20T20:01:35.633Z,85.24
2022-10-20T20:04:04.359Z,85.58
2022-10-20T20:06:32.696Z,86.18
2022-10-20T20:09:03.799Z,86.15
2022-10-20T20:11:32.663Z,86.81
2022-10-20T20:14:02.967Z,86.76
2022-10-20T20:16:31.611Z,87.09
2022-10-20T20:19:00.387Z,87.68
2022-10-20T20:21:28.705Z,87.34
2022-10-20T20:23:59.774Z,87.52
2022-10-20T20:26:31.243Z,88.18
2022-10-20T20:29:00.229Z,88.17
2022-10-20T20:31:29.318Z,88.64
2022-10-20T20:33:58.602Z,88.87
2022-10-20T20:36:28.121Z,89.24
2022-10-20T20:38:58.155Z,89.25
2022-10-20T20:41:27.530Z,89.11
2022-10-20T20:43:57.027Z,88.82
2022-10-20T20:46:26.810Z,88.80
2022-10-20T20:48:54.929Z,88.54
2022-10-20T20:51:22.991Z,88.28
2022-10-20T20:53:50.915Z,88.46
2022-10-20T20:56:21.866Z,88.13
2022-10-20T20:58:55.050Z,87.22
2022-10-20T21:01:27.250Z,86.98
2022-10-20T21:03:56.604Z,86.31
2022-10-20T21:06:33.172Z,85.80
2022-10-20T21:09:02.300Z,85.38
2022-10-20T21:11:30.464Z,85.28
2022-10-20T21:13:59.203Z,84.92
2022-10-20T21:16:30.158Z,83.79
2022-10-20T21:19:00.122Z,83.51
2022-10-20T21:21:29.110Z,83.42
2022-10-20T21:23:57.859Z,83.31
2022-10-20T21:26:26.045Z,83.12
2022-10-20T21:28:54.441Z,83.29
2022-10-20T21:31:25.056Z,82.91
2022-10-20T21:33:55.927Z,83.07
2022-10-20T21:36:24.192Z,83.40
2022-10-20T21:38:52.499Z,83.13
2022-10-20T21:41:21.264Z,83.11
2022-10-20T21:43:50.510Z,83.70
2022-10-20T21:46:19.699Z,83.81
2022-10-20T21:48:48.557Z,83.54
2022-10-20T21:51:19.920Z,83.39
2022-10-20T21:53:51.846Z,83.26
2022-10-20T21:56:23.840Z,83.40
2022-10-20T21:58:51.917Z,83.12
2022-10-20T22:01:20.786Z,83.29
2022-10-20T22:03:49.547Z,83.16
2022-10-20T22:06:20.266Z,83.44
2022-10-20T22:08:49.538Z,83.01
2022-10-20T22:11:19.243Z,82.76
2022-10-20T22:13:47.621Z,82.79
2022-10-20T22:16:17.283Z,83.02
2022-10-20T22:18:45.518Z,82.93
2022-10-20T22:21:15.515Z,82.39
2022-10-20T22:23:45.549Z,82.58
2022-10-20T22:26:13.501Z,82.75
2022-10-20T22:28:41.544Z,82.83
2022-10-20T22:31:11.038Z,82.68
2022-10-20T22:33:40.719Z,82.51
2022-10-20T22:36:08.903Z,82.94
2022-10-20T22:38:36.859Z,82.21
2022-10-20T22:41:06.169Z,82.21
2022-10-20T22:43:34.159Z,81.73
2022-10-20T22:46:02.264Z,81.86
2022-10-20T22:48:30.256Z,81.85
2022-10-20T22:50:58.208Z,81.59
2022-10-20T22:53:26.558Z,81.30
2022-10-20T22:55:54.471Z,81.99
2022-10-20T22:58:24.013Z,81.34
2022-10-20T23:00:51.980Z,81.08
2022-10-20T23:03:19.948Z,80.53
2022-10-20T23:05:47.863Z,80.46
2022-10-20T23:08:15.733Z,80.48
2022-10-20T23:10:43.803Z,80.46
2022-10-20T23:13:11.774Z,80.46
2022-10-20T23:15:41.017Z,80.33
2022-10-20T23:18:08.886Z,80.31
2022-10-20T23:20:36.793Z,80.27
2022-10-20T23:23:04.850Z,80.32
2022-10-20T23:25:32.756Z,80.14
2022-10-20T23:28:00.697Z,79.96
2022-10-20T23:30:28.635Z,80.10
2022-10-20T23:32:57.982Z,80.00
2022-10-20T23:35:26.131Z,79.89
2022-10-20T23:37:54.093Z,79.79
2022-10-20T23:40:21.964Z,79.89
2022-10-20T23:42:49.965Z,80.30
2022-10-20T23:45:17.921Z,80.72
2022-10-20T23:47:45.992Z,80.77
2022-10-20T23:50:16.536Z,80.82
2022-10-20T23:52:44.484Z,81.01
2022-10-20T23:55:15.381Z,81.21
2022-10-20T23:57:43.867Z,82.41
